createdAt,value
2017-11-13T00:00:08.218Z,85.67
2017-11-13T00:02:35.611Z,85.66
2017-11-13T00:05:03.004Z,86.08
2017-11-13T00:07:30.394Z,86.53
2017-11-13T00:09:57.791Z,86.77
2017-11-13T00:12:25.292Z,87.25
2017-11-13T00:14:52.743Z,87.76
2017-11-13T00:17:20.199Z,88.12
2017-11-13T00:19:47.580Z,87.85
2017-11-13T00:22:14.980Z,88.47
2017-11-13T00:24:42.459Z,87.68
2017-11-13T00:27:09.855Z,87.37
2017-11-13T00:29:37.250Z,88.53
2017-11-13T00:32:04.769Z,88.76
2017-11-13T00:34:32.143Z,87.98
2017-11-13T00:36:59.649Z,87.88
2017-11-13T00:39:27.128Z,88.37
2017-11-13T00:41:54.563Z,88.89
2017-11-13T00:44:21.973Z,88.66
2017-11-13T00:46:49.375Z,88.70
2017-11-13T00:49:16.839Z,88.72
2017-11-13T00:51:44.234Z,88.13
2017-11-13T00:54:11.639Z,87.54
2017-11-13T00:56:39.103Z,87.19
2017-11-13T00:59:06.568Z,86.82
2017-11-13T01:01:33.956Z,86.69
2017-11-13T01:04:01.351Z,86.66
2017-11-13T01:06:28.824Z,86.69
2017-11-13T01:08:56.276Z,86.98
2017-11-13T01:11:23.664Z,86.84
2017-11-13T01:13:51.084Z,87.82
2017-11-13T01:16:18.556Z,88.24
2017-11-13T01:18:45.960Z,87.78
2017-11-13T01:21:13.345Z,87.07
2017-11-13T01:23:40.735Z,86.61
2017-11-13T01:26:08.177Z,87.50
2017-11-13T01:28:35.566Z,87.85
2017-11-13T01:31:02.956Z,88.51
2017-11-13T01:33:30.344Z,87.34
2017-11-13T01:35:57.725Z,86.53
2017-11-13T01:38:25.115Z,85.87
2017-11-13T01:40:52.505Z,85.38
2017-11-13T01:43:19.891Z,84.86
2017-11-13T01:45:47.297Z,84.03
2017-11-13T01:48:14.687Z,83.65
2017-11-13T01:50:42.080Z,83.12
2017-11-13T01:53:09.479Z,83.20
2017-11-13T01:55:36.861Z,82.79
2017-11-13T01:58:04.266Z,82.46
2017-11-13T02:00:31.729Z,82.17
2017-11-13T02:02:59.136Z,82.63
2017-11-13T02:05:26.528Z,82.71
2017-11-13T02:07:53.928Z,82.60
2017-11-13T02:10:21.360Z,81.85
2017-11-13T02:12:48.747Z,81.16
2017-11-13T02:15:16.147Z,81.15
2017-11-13T02:17:43.539Z,80.86
2017-11-13T02:20:10.944Z,81.00
2017-11-13T02:22:38.332Z,80.79
2017-11-13T02:25:05.729Z,80.62
2017-11-13T02:27:33.140Z,80.94
2017-11-13T02:30:00.548Z,81.41
2017-11-13T02:32:27.940Z,81.68
2017-11-13T02:34:55.421Z,81.45
2017-11-13T02:37:22.811Z,81.79
2017-11-13T02:39:50.221Z,81.24
2017-11-13T02:42:17.606Z,81.09
2017-11-13T02:44:45.014Z,80.78
2017-11-13T02:47:12.404Z,80.54
2017-11-13T02:49:39.815Z,80.42
2017-11-13T02:52:07.211Z,80.01
2017-11-13T02:54:34.610Z,81.03
2017-11-13T02:57:02.000Z,81.24
2017-11-13T02:59:29.459Z,80.95
2017-11-13T03:01:56.922Z,80.96
2017-11-13T03:04:24.314Z,80.82
2017-11-13T03:06:51.711Z,80.29
2017-11-13T03:09:19.175Z,79.74
2017-11-13T03:11:46.640Z,79.64
2017-11-13T03:14:14.028Z,79.69
2017-11-13T03:16:41.442Z,79.70
2017-11-13T03:19:08.904Z,80.06
2017-11-13T03:21:36.363Z,80.05
2017-11-13T03:24:03.752Z,80.01
2017-11-13T03:26:31.141Z,79.70
2017-11-13T03:28:58.537Z,79.42
2017-11-13T03:31:25.936Z,81.07
2017-11-13T03:33:53.331Z,79.85
2017-11-13T03:36:20.803Z,79.67
2017-11-13T03:38:48.201Z,79.76
2017-11-13T03:41:15.595Z,79.56
2017-11-13T03:43:43.004Z,79.89
2017-11-13T03:46:10.388Z,80.24
2017-11-13T03:48:37.779Z,80.63
2017-11-13T03:51:05.176Z,81.17
2017-11-13T03:53:32.574Z,81.93
2017-11-13T03:56:00.043Z,82.57
2017-11-13T03:58:27.504Z,82.12
2017-11-13T04:00:54.971Z,81.77
2017-11-13T04:03:22.415Z,80.91
2017-11-13T04:05:49.871Z,81.72
2017-11-13T04:08:17.268Z,81.31
2017-11-13T04:10:44.665Z,80.78
2017-11-13T04:13:12.048Z,80.92
2017-11-13T04:15:39.440Z,80.93
2017-11-13T04:18:06.844Z,80.94
2017-11-13T04:20:34.309Z,81.31
2017-11-13T04:23:01.700Z,81.52
2017-11-13T04:25:29.108Z,81.09
2017-11-13T04:27:56.508Z,82.27
2017-11-13T04:30:23.900Z,82.33
2017-11-13T04:32:51.296Z,81.98
2017-11-13T04:35:18.679Z,81.67
2017-11-13T04:37:46.076Z,82.46
2017-11-13T04:40:13.476Z,82.29
2017-11-13T04:42:40.897Z,83.14
2017-11-13T04:45:08.280Z,82.48
2017-11-13T04:47:35.688Z,81.70
2017-11-13T04:50:03.074Z,81.43
2017-11-13T04:52:30.469Z,80.86
2017-11-13T04:54:57.860Z,81.08
2017-11-13T04:57:25.251Z,81.50
2017-11-13T04:59:52.671Z,81.82
2017-11-13T05:02:20.072Z,82.54
2017-11-13T05:04:47.492Z,82.22
2017-11-13T05:07:14.881Z,81.67
2017-11-13T05:09:42.272Z,81.59
2017-11-13T05:12:09.757Z,81.22
2017-11-13T05:14:37.217Z,80.82
2017-11-13T05:17:04.609Z,80.26
2017-11-13T05:19:32.024Z,80.06
2017-11-13T05:21:59.484Z,80.50
2017-11-13T05:24:26.868Z,80.19
2017-11-13T05:26:54.291Z,80.74
2017-11-13T05:29:21.748Z,80.52
2017-11-13T05:31:49.151Z,82.39
2017-11-13T05:34:16.557Z,82.12
2017-11-13T05:36:43.940Z,82.44
2017-11-13T05:39:11.336Z,82.85
2017-11-13T05:41:38.820Z,83.04
2017-11-13T05:44:06.270Z,83.34
2017-11-13T05:46:33.688Z,83.33
2017-11-13T05:49:01.102Z,83.47
2017-11-13T05:51:28.503Z,83.47
2017-11-13T05:53:55.998Z,82.65
2017-11-13T05:56:23.455Z,81.92
2017-11-13T05:58:50.852Z,81.32
2017-11-13T06:01:18.247Z,80.97
2017-11-13T06:03:45.725Z,81.03
2017-11-13T06:06:13.196Z,80.57
2017-11-13T06:08:40.568Z,80.77
2017-11-13T06:11:07.988Z,80.02
2017-11-13T06:13:35.451Z,79.42
2017-11-13T06:16:02.832Z,79.01
2017-11-13T06:18:30.228Z,78.71
2017-11-13T06:20:57.615Z,78.37
2017-11-13T06:23:25.000Z,78.07
2017-11-13T06:25:52.388Z,77.80
2017-11-13T06:28:19.777Z,77.87
2017-11-13T06:30:47.160Z,77.78
2017-11-13T06:33:14.583Z,77.57
2017-11-13T06:35:41.967Z,77.52
2017-11-13T06:38:09.360Z,77.33
2017-11-13T06:40:36.748Z,77.42
2017-11-13T06:43:04.142Z,76.82
2017-11-13T06:45:31.556Z,76.83
2017-11-13T06:47:58.943Z,76.82
2017-11-13T06:50:26.332Z,77.10
2017-11-13T06:52:53.724Z,77.76
2017-11-13T06:55:21.119Z,77.83
2017-11-13T06:57:48.496Z,77.96
2017-11-13T07:00:15.936Z,78.00
2017-11-13T07:02:43.358Z,78.53
2017-11-13T07:05:10.823Z,78.43
2017-11-13T07:07:38.207Z,78.17
2017-11-13T07:10:05.602Z,77.99
2017-11-13T07:12:32.988Z,78.00
2017-11-13T07:15:00.389Z,77.94
2017-11-13T07:17:27.777Z,77.94
2017-11-13T07:19:55.177Z,77.96
2017-11-13T07:22:22.559Z,77.66
2017-11-13T07:24:49.948Z,77.54
2017-11-13T07:27:17.334Z,77.49
2017-11-13T07:29:44.727Z,77.14
2017-11-13T07:32:12.112Z,77.29
2017-11-13T07:34:39.552Z,78.14
2017-11-13T07:37:07.012Z,84.98
2017-11-13T07:39:34.403Z,90.13
2017-11-13T07:42:01.783Z,89.76
2017-11-13T07:44:29.167Z,84.43
2017-11-13T07:46:56.552Z,72.87
2017-11-13T07:49:23.939Z,64.57
2017-11-13T07:51:51.337Z,58.33
2017-11-13T07:54:18.731Z,54.69
2017-11-13T07:56:46.123Z,50.39
2017-11-13T07:59:13.616Z,48.96
2017-11-13T08:01:41.067Z,46.62
2017-11-13T08:04:08.456Z,46.09
2017-11-13T08:06:35.878Z,44.64
2017-11-13T08:09:03.264Z,42.98
2017-11-13T08:11:30.661Z,40.35
2017-11-13T08:13:58.144Z,38.30
2017-11-13T08:16:25.532Z,37.11
2017-11-13T08:18:52.957Z,34.72
2017-11-13T08:21:20.352Z,34.86
2017-11-13T08:23:47.744Z,35.33
2017-11-13T08:26:15.140Z,34.89
2017-11-13T08:28:42.527Z,33.98
2017-11-13T08:31:10.036Z,34.42
2017-11-13T08:33:37.428Z,33.58
2017-11-13T08:36:04.835Z,33.77
2017-11-13T08:38:32.218Z,33.60
2017-11-13T08:40:59.716Z,33.25
2017-11-13T08:43:27.207Z,32.33
2017-11-13T08:45:54.601Z,31.89
2017-11-13T08:48:21.997Z,32.36
2017-11-13T08:50:49.393Z,31.72
2017-11-13T08:53:16.788Z,31.70
2017-11-13T08:55:44.195Z,31.22
2017-11-13T08:58:11.639Z,31.39
2017-11-13T09:00:39.224Z,31.46
2017-11-13T09:03:06.608Z,32.13
2017-11-13T09:05:33.989Z,31.76
2017-11-13T09:08:01.395Z,32.13
2017-11-13T09:10:28.828Z,31.83
2017-11-13T09:12:56.224Z,31.62
2017-11-13T09:15:23.640Z,31.86
2017-11-13T09:17:51.047Z,31.29
2017-11-13T09:20:18.447Z,30.74
2017-11-13T09:22:45.900Z,31.86
2017-11-13T09:25:13.372Z,30.35
2017-11-13T09:27:40.765Z,31.20
2017-11-13T09:30:08.157Z,31.53
2017-11-13T09:32:35.631Z,31.22
2017-11-13T09:35:03.016Z,31.14
2017-11-13T09:37:30.417Z,30.70
2017-11-13T09:39:57.800Z,31.29
2017-11-13T09:42:25.247Z,31.75
2017-11-13T09:44:52.640Z,32.39
2017-11-13T09:47:20.064Z,31.10
2017-11-13T09:49:47.524Z,32.14
2017-11-13T09:52:14.920Z,32.75
2017-11-13T09:54:42.308Z,32.51
2017-11-13T09:57:09.788Z,33.05
2017-11-13T09:59:37.249Z,32.38
2017-11-13T10:02:04.652Z,32.40
2017-11-13T10:04:32.051Z,32.31
2017-11-13T10:06:59.448Z,32.35
2017-11-13T10:09:26.833Z,32.93
2017-11-13T10:11:54.246Z,32.91
2017-11-13T10:14:21.628Z,32.29
2017-11-13T10:16:49.016Z,34.16
2017-11-13T10:19:16.408Z,33.95
2017-11-13T10:21:43.796Z,33.18
2017-11-13T10:24:11.187Z,33.01
2017-11-13T10:26:38.571Z,32.77
2017-11-13T10:29:05.959Z,32.64
2017-11-13T10:31:33.351Z,33.10
2017-11-13T10:34:00.744Z,33.41
2017-11-13T10:36:28.172Z,34.27
2017-11-13T10:38:55.575Z,34.56
2017-11-13T10:41:22.993Z,33.92
2017-11-13T10:43:50.381Z,34.67
2017-11-13T10:46:17.781Z,35.26
2017-11-13T10:48:45.267Z,36.21
2017-11-13T10:51:12.654Z,37.70
2017-11-13T10:53:40.052Z,38.46
2017-11-13T10:56:07.444Z,39.64
2017-11-13T10:58:34.849Z,38.76
2017-11-13T11:01:02.241Z,38.74
2017-11-13T11:03:29.640Z,39.03
2017-11-13T11:05:57.026Z,40.25
2017-11-13T11:08:24.417Z,41.37
2017-11-13T11:10:51.800Z,43.75
2017-11-13T11:13:21.573Z,45.34
2017-11-13T11:15:49.249Z,47.62
2017-11-13T11:18:17.552Z,50.02
2017-11-13T11:21:00.715Z,52.59
2017-11-13T11:23:28.905Z,54.19
2017-11-13T11:25:59.720Z,55.36
2017-11-13T11:31:31.853Z,57.54
2017-11-13T11:34:01.572Z,57.51
2017-11-13T11:39:32.804Z,56.94
2017-11-13T11:42:00.188Z,57.79
2017-11-13T11:44:28.469Z,58.25
2017-11-13T11:46:55.860Z,57.54
2017-11-13T11:49:27.596Z,58.35
2017-11-13T11:51:54.985Z,57.61
2017-11-13T11:54:23.276Z,57.62
2017-11-13T11:57:04.558Z,56.36
2017-11-13T11:59:31.955Z,56.65
2017-11-13T12:01:59.347Z,56.49
2017-11-13T12:04:26.823Z,56.26
2017-11-13T12:06:54.215Z,56.16
2017-11-13T12:09:21.633Z,56.34
2017-11-13T12:11:49.101Z,56.96
2017-11-13T12:14:16.492Z,55.99
2017-11-13T12:16:43.889Z,55.26
2017-11-13T12:19:11.284Z,55.34
2017-11-13T12:21:38.691Z,55.36
2017-11-13T12:24:06.060Z,55.14
2017-11-13T12:26:33.479Z,54.12
2017-11-13T12:29:00.856Z,52.67
2017-11-13T12:31:28.254Z,53.62
2017-11-13T12:33:55.696Z,52.77
2017-11-13T12:36:23.098Z,52.04
2017-11-13T12:38:50.488Z,52.50
2017-11-13T12:41:17.968Z,51.17
2017-11-13T12:43:45.424Z,51.81
2017-11-13T12:46:12.859Z,51.34
2017-11-13T12:48:40.250Z,51.18
2017-11-13T12:51:07.663Z,51.62
2017-11-13T12:53:35.152Z,51.25
2017-11-13T12:56:02.611Z,50.53
2017-11-13T12:58:30.064Z,50.63
2017-11-13T13:00:57.520Z,50.78
2017-11-13T13:03:24.905Z,50.73
2017-11-13T13:05:52.384Z,49.16
2017-11-13T13:08:19.771Z,50.91
2017-11-13T13:10:47.167Z,51.21
2017-11-13T13:13:14.592Z,51.16
2017-11-13T13:15:42.020Z,51.17
2017-11-13T13:18:09.404Z,51.51
2017-11-13T13:20:36.823Z,52.16
2017-11-13T13:23:04.216Z,51.24
2017-11-13T13:25:31.603Z,51.18
2017-11-13T13:27:59.017Z,51.89
2017-11-13T13:30:26.388Z,51.75
2017-11-13T13:32:53.788Z,52.60
2017-11-13T13:35:21.176Z,52.07
2017-11-13T13:37:48.616Z,51.93
2017-11-13T13:40:16.004Z,52.16
2017-11-13T13:42:43.391Z,52.07
2017-11-13T13:45:10.779Z,52.91
2017-11-13T13:47:38.205Z,52.25
2017-11-13T13:50:05.696Z,52.69
2017-11-13T13:52:33.160Z,52.75
2017-11-13T13:55:00.549Z,51.99
2017-11-13T13:57:27.949Z,53.00
2017-11-13T13:59:55.424Z,53.04
2017-11-13T14:02:22.884Z,52.75
2017-11-13T14:04:50.339Z,53.21
2017-11-13T14:07:17.797Z,52.83
2017-11-13T14:09:45.193Z,54.32
2017-11-13T14:12:12.605Z,53.33
2017-11-13T14:14:39.980Z,54.29
2017-11-13T14:17:07.398Z,53.58
2017-11-13T14:19:34.766Z,54.11
2017-11-13T14:22:02.228Z,53.56
2017-11-13T14:24:29.616Z,55.00
2017-11-13T14:26:57.040Z,55.43
2017-11-13T14:29:24.431Z,55.09
2017-11-13T14:31:51.836Z,55.09
2017-11-13T14:34:19.228Z,54.75
2017-11-13T14:36:46.665Z,54.93
2017-11-13T14:39:14.124Z,55.04
2017-11-13T14:41:41.520Z,55.32
2017-11-13T14:44:08.929Z,55.05
2017-11-13T14:46:36.311Z,54.85
2017-11-13T14:49:03.703Z,54.57
2017-11-13T14:51:31.087Z,54.22
2017-11-13T14:53:58.483Z,54.80
2017-11-13T14:56:25.864Z,54.83
2017-11-13T14:58:53.255Z,54.50
2017-11-13T15:01:20.643Z,55.05
2017-11-13T15:03:48.076Z,55.16
2017-11-13T15:06:15.467Z,55.03
2017-11-13T15:08:42.868Z,55.30
2017-11-13T15:11:10.347Z,55.89
2017-11-13T15:13:37.808Z,56.04
2017-11-13T15:16:05.196Z,56.19
2017-11-13T15:18:32.588Z,56.79
2017-11-13T15:21:00.063Z,57.38
2017-11-13T15:23:27.469Z,58.26
2017-11-13T15:25:54.860Z,58.40
2017-11-13T15:28:22.267Z,58.55
2017-11-13T15:30:49.691Z,58.76
2017-11-13T15:33:17.117Z,58.92
2017-11-13T15:35:44.496Z,59.44
2017-11-13T15:38:11.959Z,59.30
2017-11-13T15:40:39.416Z,59.34
2017-11-13T15:43:06.893Z,59.49
2017-11-13T15:45:34.286Z,59.75
2017-11-13T15:48:01.676Z,59.73
2017-11-13T15:50:29.071Z,59.85
2017-11-13T15:52:56.468Z,59.95
2017-11-13T15:55:23.957Z,60.22
2017-11-13T15:57:51.345Z,60.45
2017-11-13T16:00:18.741Z,60.94
2017-11-13T16:02:46.137Z,61.51
2017-11-13T16:05:13.537Z,61.66
2017-11-13T16:07:40.919Z,62.14
2017-11-13T16:10:08.319Z,62.71
2017-11-13T16:12:35.744Z,62.86
2017-11-13T16:15:03.136Z,63.18
2017-11-13T16:17:30.525Z,63.20
2017-11-13T16:19:57.914Z,63.92
2017-11-13T16:22:25.367Z,64.27
2017-11-13T16:24:52.755Z,64.54
2017-11-13T16:27:20.167Z,64.91
2017-11-13T16:29:47.623Z,65.76
2017-11-13T16:32:15.024Z,66.07
2017-11-13T16:34:42.416Z,66.35
2017-11-13T16:37:09.805Z,66.82
2017-11-13T16:39:37.200Z,67.20
2017-11-13T16:42:04.608Z,67.02
2017-11-13T16:44:32.030Z,67.03
2017-11-13T16:46:59.418Z,67.39
2017-11-13T16:49:26.821Z,67.66
2017-11-13T16:51:54.227Z,67.81
2017-11-13T16:54:21.689Z,68.45
2017-11-13T16:56:49.143Z,69.60
2017-11-13T16:59:16.528Z,69.92
2017-11-13T17:01:43.932Z,70.09
2017-11-13T17:04:11.322Z,70.43
2017-11-13T17:06:38.720Z,70.99
2017-11-13T17:09:06.111Z,71.26
2017-11-13T17:11:33.575Z,71.15
2017-11-13T17:14:01.028Z,70.85
2017-11-13T17:16:28.430Z,70.51
2017-11-13T17:18:55.825Z,70.09
2017-11-13T17:21:23.219Z,70.07
2017-11-13T17:23:50.651Z,70.48
2017-11-13T17:26:18.119Z,70.62
2017-11-13T17:28:45.514Z,70.54
2017-11-13T17:31:12.911Z,70.45
2017-11-13T17:33:40.376Z,70.54
2017-11-13T17:36:07.831Z,71.52
2017-11-13T17:38:35.288Z,71.55
2017-11-13T17:41:02.698Z,72.59
2017-11-13T17:43:30.100Z,72.42
2017-11-13T17:45:57.559Z,72.72
2017-11-13T17:48:24.944Z,72.85
2017-11-13T17:50:52.351Z,72.50
2017-11-13T17:53:19.711Z,72.60
2017-11-13T17:55:47.177Z,72.79
2017-11-13T17:58:14.560Z,72.66
2017-11-13T18:00:41.956Z,72.37
2017-11-13T18:03:09.344Z,72.40
2017-11-13T18:05:36.791Z,73.00
2017-11-13T18:08:04.184Z,73.62
2017-11-13T18:10:31.608Z,73.38
2017-11-13T18:12:59.059Z,73.80
2017-11-13T18:15:26.448Z,73.98
2017-11-13T18:17:53.836Z,74.46
2017-11-13T18:20:21.331Z,74.23
2017-11-13T18:22:48.783Z,73.84
2017-11-13T18:25:16.171Z,73.48
2017-11-13T18:27:43.612Z,73.07
2017-11-13T18:30:10.984Z,73.20
2017-11-13T18:32:38.403Z,72.91
2017-11-13T18:35:05.783Z,73.49
2017-11-13T18:37:33.183Z,73.52
2017-11-13T18:40:00.676Z,73.51
2017-11-13T18:42:28.072Z,73.07
2017-11-13T18:44:55.486Z,72.53
2017-11-13T18:47:22.883Z,72.37
2017-11-13T18:49:50.295Z,72.15
2017-11-13T18:52:17.756Z,71.91
2017-11-13T18:54:45.196Z,72.01
2017-11-13T18:57:12.587Z,72.10
2017-11-13T18:59:39.965Z,71.45
2017-11-13T19:02:07.403Z,71.46
2017-11-13T19:04:34.760Z,71.11
2017-11-13T19:07:02.200Z,70.89
2017-11-13T19:09:29.590Z,70.77
2017-11-13T19:11:56.996Z,70.25
2017-11-13T19:14:24.452Z,70.67
2017-11-13T19:16:51.843Z,70.83
2017-11-13T19:19:19.231Z,71.05
2017-11-13T19:21:46.725Z,72.14
2017-11-13T19:24:14.193Z,71.91
2017-11-13T19:26:41.577Z,72.25
2017-11-13T19:29:08.961Z,72.11
2017-11-13T19:31:36.492Z,71.53
2017-11-13T19:34:03.888Z,71.01
2017-11-13T19:36:31.303Z,70.71
2017-11-13T19:38:58.692Z,70.63
2017-11-13T19:41:26.084Z,70.65
2017-11-13T19:43:53.528Z,70.34
2017-11-13T19:46:20.907Z,70.53
2017-11-13T19:48:48.293Z,70.68
2017-11-13T19:51:15.676Z,70.84
2017-11-13T19:53:43.062Z,70.92
2017-11-13T19:56:10.444Z,70.88
2017-11-13T19:58:37.835Z,70.77
2017-11-13T20:01:05.220Z,70.65
2017-11-13T20:03:32.696Z,70.59
2017-11-13T20:06:00.080Z,70.90
2017-11-13T20:08:27.499Z,71.78
2017-11-13T20:10:54.972Z,71.86
2017-11-13T20:13:22.366Z,72.26
2017-11-13T20:15:49.756Z,72.97
2017-11-13T20:18:17.131Z,72.95
2017-11-13T20:20:44.601Z,72.86
2017-11-13T20:23:11.983Z,72.82
2017-11-13T20:25:39.399Z,72.82
2017-11-13T20:28:06.864Z,72.83
2017-11-13T20:30:34.269Z,73.03
2017-11-13T20:33:01.659Z,73.02
2017-11-13T20:35:29.133Z,72.92
2017-11-13T20:37:56.508Z,73.04
2017-11-13T20:40:23.911Z,73.31
2017-11-13T20:42:51.391Z,73.70
2017-11-13T20:45:18.794Z,73.35
2017-11-13T20:47:46.203Z,72.96
2017-11-13T20:50:13.599Z,72.41
2017-11-13T20:52:41.012Z,72.51
2017-11-13T20:55:08.433Z,74.53
2017-11-13T20:57:35.816Z,73.49
2017-11-13T21:00:03.888Z,74.03
2017-11-13T21:02:31.275Z,73.60
2017-11-13T21:04:58.670Z,73.97
2017-11-13T21:07:26.057Z,74.14
2017-11-13T21:09:53.461Z,74.53
2017-11-13T21:12:20.839Z,74.93
2017-11-13T21:14:48.228Z,74.96
2017-11-13T21:17:15.603Z,75.04
2017-11-13T21:19:43.000Z,74.93
2017-11-13T21:22:10.483Z,74.84
2017-11-13T21:24:37.873Z,74.80
2017-11-13T21:27:05.268Z,74.88
2017-11-13T21:29:32.748Z,75.05
2017-11-13T21:32:00.150Z,75.04
2017-11-13T21:34:27.569Z,74.78
2017-11-13T21:39:26.108Z,75.28
2017-11-13T21:41:53.499Z,75.51
2017-11-13T21:44:20.875Z,75.76
2017-11-13T21:46:48.267Z,75.52
2017-11-13T21:49:15.653Z,75.32
2017-11-13T21:51:43.038Z,75.54
2017-11-13T21:54:10.442Z,75.56
2017-11-13T21:56:37.937Z,75.27
2017-11-13T21:59:05.350Z,75.16
2017-11-13T22:01:32.806Z,75.36
2017-11-13T22:04:00.274Z,75.32
2017-11-13T22:06:28.671Z,75.99
2017-11-13T22:08:56.165Z,76.33
2017-11-13T22:11:23.571Z,77.39
2017-11-13T22:13:50.962Z,79.47
2017-11-13T22:16:18.380Z,79.22
2017-11-13T22:18:45.763Z,78.60
2017-11-13T22:21:13.168Z,77.97
2017-11-13T22:23:40.556Z,77.46
2017-11-13T22:26:07.940Z,77.21
2017-11-13T22:28:35.332Z,77.08
2017-11-13T22:31:02.732Z,77.15
2017-11-13T22:33:30.128Z,76.89
2017-11-13T22:35:57.533Z,76.82
2017-11-13T22:38:24.925Z,76.82
2017-11-13T22:40:52.316Z,77.00
2017-11-13T22:43:19.708Z,77.33
2017-11-13T22:45:47.135Z,77.54
2017-11-13T22:48:14.592Z,77.36
2017-11-13T22:50:41.976Z,77.16
2017-11-13T22:53:09.360Z,77.31
2017-11-13T22:55:36.767Z,77.09
2017-11-13T22:58:04.216Z,76.90
2017-11-13T23:00:31.599Z,76.92
2017-11-13T23:02:58.992Z,76.99
2017-11-13T23:05:26.471Z,76.71
2017-11-13T23:07:53.868Z,76.43
2017-11-13T23:10:21.244Z,76.14
2017-11-13T23:12:48.745Z,76.27
2017-11-13T23:15:16.131Z,76.65
2017-11-13T23:17:43.522Z,76.91
2017-11-13T23:20:10.909Z,77.11
2017-11-13T23:22:38.305Z,76.99
2017-11-13T23:25:05.689Z,76.99
2017-11-13T23:27:33.079Z,76.82
2017-11-13T23:30:00.481Z,76.43
2017-11-13T23:32:27.879Z,76.65
2017-11-13T23:34:55.340Z,77.03
2017-11-13T23:37:22.732Z,76.84
2017-11-13T23:39:50.126Z,76.74
2017-11-13T23:42:17.517Z,76.62
2017-11-13T23:44:44.896Z,76.56
2017-11-13T23:47:12.293Z,76.48
2017-11-13T23:49:39.682Z,76.58
2017-11-13T23:52:07.072Z,76.51
2017-11-13T23:54:36.395Z,76.19
2017-11-13T23:57:03.786Z,76.84
2017-11-13T23:59:31.163Z,76.78
